Terminal Aerodrome Forecast
Issued by NWS Shreveport, LA

Home | Current Version | Previous Version | Text Only | Print | Product List | Glossary On
Versions: 1 2 3 4 5 6 7 8 9 10 11 12 13 14 15 16 17 18 19 20 21 22 23 24 25 26 27 28 29 30 31 32 33 34 35 36 37 38 39 40 41 42 43 44 45 46 47 48 49 50
000
FTUS44 KSHV 230532
TAFLFK
TAF
KLFK 230532Z 2306/2406 VRB04KT P6SM VCSH BKN040 OVC060
     FM230900 36007KT P6SM SCT025 BKN250
      TEMPO 2311/2315 BKN015
     FM231500 02012G18KT P6SM SCT250
     FM240000 04006KT P6SM SKC=

USA.gov is the U.S. government's official web portal to all federal, state and local government web resources and services.